sensor_id;sensor_type;location;lat;lon;timestamp;P1;durP1;ratioP1;P2;durP2;ratioP2
17648;SDS011;8943;51.110;-4.158;2022-08-02T00:00:45;1.67;;;0.70;;
17648;SDS011;8943;51.110;-4.158;2022-08-02T00:03:13;1.93;;;0.60;;
17648;SDS011;8943;51.110;-4.158;2022-08-02T00:05:43;1.10;;;0.27;;
17648;SDS011;8943;51.110;-4.158;2022-08-02T00:08:22;1.83;;;0.50;;
17648;SDS011;8943;51.110;-4.158;2022-08-02T00:10:53;3.03;;;0.60;;
17648;SDS011;8943;51.110;-4.158;2022-08-02T00:13:24;0.73;;;0.30;;
17648;SDS011;8943;51.110;-4.158;2022-08-02T00:15:52;2.17;;;0.73;;
17648;SDS011;8943;51.110;-4.158;2022-08-02T00:18:20;2.80;;;0.90;;
17648;SDS011;8943;51.110;-4.158;2022-08-02T00:20:48;3.83;;;0.70;;
17648;SDS011;8943;51.110;-4.158;2022-08-02T00:23:20;2.50;;;0.57;;
17648;SDS011;8943;51.110;-4.158;2022-08-02T00:25:49;2.57;;;0.50;;
17648;SDS011;8943;51.110;-4.158;2022-08-02T00:28:21;3.30;;;0.60;;
17648;SDS011;8943;51.110;-4.158;2022-08-02T00:30:55;4.20;;;0.97;;
17648;SDS011;8943;51.110;-4.158;2022-08-02T00:33:23;2.57;;;0.73;;
17648;SDS011;8943;51.110;-4.158;2022-08-02T00:36:12;1.83;;;0.63;;
17648;SDS011;8943;51.110;-4.158;2022-08-02T00:38:40;1.67;;;0.60;;
17648;SDS011;8943;51.110;-4.158;2022-08-02T00:41:12;3.27;;;0.60;;
17648;SDS011;8943;51.110;-4.158;2022-08-02T00:43:42;4.33;;;0.60;;
17648;SDS011;8943;51.110;-4.158;2022-08-02T00:46:12;2.93;;;0.80;;
17648;SDS011;8943;51.110;-4.158;2022-08-02T00:48:41;3.37;;;0.90;;
17648;SDS011;8943;51.110;-4.158;2022-08-02T00:51:15;2.73;;;0.87;;
17648;SDS011;8943;51.110;-4.158;2022-08-02T00:53:44;2.40;;;0.77;;
17648;SDS011;8943;51.110;-4.158;2022-08-02T00:56:12;7.20;;;0.83;;
17648;SDS011;8943;51.110;-4.158;2022-08-02T00:58:40;3.97;;;1.07;;
17648;SDS011;8943;51.110;-4.158;2022-08-02T01:01:13;3.07;;;0.90;;
17648;SDS011;8943;51.110;-4.158;2022-08-02T01:03:42;4.70;;;1.30;;
17648;SDS011;8943;51.110;-4.158;2022-08-02T01:06:11;3.20;;;1.10;;
17648;SDS011;8943;51.110;-4.158;2022-08-02T01:08:39;6.40;;;1.43;;
17648;SDS011;8943;51.110;-4.158;2022-08-02T01:11:10;3.30;;;1.00;;
17648;SDS011;8943;51.110;-4.158;2022-08-02T01:13:38;5.50;;;1.10;;
17648;SDS011;8943;51.110;-4.158;2022-08-02T01:16:09;6.80;;;0.83;;
17648;SDS011;8943;51.110;-4.158;2022-08-02T01:18:46;3.50;;;0.90;;
17648;SDS011;8943;51.110;-4.158;2022-08-02T01:21:22;6.30;;;1.07;;
17648;SDS011;8943;51.110;-4.158;2022-08-02T01:24:06;3.53;;;0.90;;
17648;SDS011;8943;51.110;-4.158;2022-08-02T01:26:48;7.30;;;1.53;;
17648;SDS011;8943;51.110;-4.158;2022-08-02T01:29:24;4.03;;;0.97;;
17648;SDS011;8943;51.110;-4.158;2022-08-02T01:34:42;4.03;;;0.90;;
17648;SDS011;8943;51.110;-4.158;2022-08-02T01:37:18;2.40;;;0.83;;
17648;SDS011;8943;51.110;-4.158;2022-08-02T01:39:50;6.53;;;1.37;;
17648;SDS011;8943;51.110;-4.158;2022-08-02T01:42:30;3.03;;;0.90;;
17648;SDS011;8943;51.110;-4.158;2022-08-02T01:45:00;1.83;;;1.00;;
17648;SDS011;8943;51.110;-4.158;2022-08-02T01:47:32;2.80;;;0.90;;
17648;SDS011;8943;51.110;-4.158;2022-08-02T01:50:06;9.50;;;0.93;;
17648;SDS011;8943;51.110;-4.158;2022-08-02T01:52:40;5.63;;;1.00;;
17648;SDS011;8943;51.110;-4.158;2022-08-02T01:55:21;2.60;;;0.90;;
17648;SDS011;8943;51.110;-4.158;2022-08-02T01:58:16;2.27;;;0.83;;
17648;SDS011;8943;51.110;-4.158;2022-08-02T02:00:48;3.70;;;1.00;;
17648;SDS011;8943;51.110;-4.158;2022-08-02T02:03:19;5.63;;;1.80;;
17648;SDS011;8943;51.110;-4.158;2022-08-02T02:05:50;5.73;;;1.50;;
17648;SDS011;8943;51.110;-4.158;2022-08-02T02:08:23;5.67;;;1.53;;
17648;SDS011;8943;51.110;-4.158;2022-08-02T02:10:55;3.77;;;1.20;;
17648;SDS011;8943;51.110;-4.158;2022-08-02T02:13:44;2.33;;;0.93;;
17648;SDS011;8943;51.110;-4.158;2022-08-02T02:16:17;3.03;;;1.00;;
17648;SDS011;8943;51.110;-4.158;2022-08-02T02:19:04;5.80;;;1.00;;
17648;SDS011;8943;51.110;-4.158;2022-08-02T02:21:35;3.13;;;1.03;;
17648;SDS011;8943;51.110;-4.158;2022-08-02T02:24:07;2.63;;;0.97;;
17648;SDS011;8943;51.110;-4.158;2022-08-02T02:26:37;1.97;;;0.80;;
17648;SDS011;8943;51.110;-4.158;2022-08-02T02:29:21;2.10;;;0.90;;
17648;SDS011;8943;51.110;-4.158;2022-08-02T02:31:56;3.70;;;1.00;;
17648;SDS011;8943;51.110;-4.158;2022-08-02T02:34:27;2.10;;;0.90;;
17648;SDS011;8943;51.110;-4.158;2022-08-02T02:37:00;7.07;;;1.20;;
17648;SDS011;8943;51.110;-4.158;2022-08-02T02:39:31;2.37;;;0.90;;
17648;SDS011;8943;51.110;-4.158;2022-08-02T02:42:02;2.80;;;1.00;;
17648;SDS011;8943;51.110;-4.158;2022-08-02T02:44:34;7.43;;;1.30;;
17648;SDS011;8943;51.110;-4.158;2022-08-02T02:47:09;7.13;;;1.30;;
17648;SDS011;8943;51.110;-4.158;2022-08-02T02:49:38;5.43;;;1.20;;
17648;SDS011;8943;51.110;-4.158;2022-08-02T02:52:09;6.53;;;1.17;;
17648;SDS011;8943;51.110;-4.158;2022-08-02T02:54:41;4.63;;;1.27;;
17648;SDS011;8943;51.110;-4.158;2022-08-02T02:57:10;8.40;;;1.70;;
17648;SDS011;8943;51.110;-4.158;2022-08-02T02:59:39;5.43;;;1.37;;
17648;SDS011;8943;51.110;-4.158;2022-08-02T03:02:17;6.57;;;1.37;;
17648;SDS011;8943;51.110;-4.158;2022-08-02T03:04:46;5.67;;;1.30;;
17648;SDS011;8943;51.110;-4.158;2022-08-02T03:07:23;8.83;;;2.03;;
17648;SDS011;8943;51.110;-4.158;2022-08-02T03:09:52;4.93;;;0.90;;
17648;SDS011;8943;51.110;-4.158;2022-08-02T03:12:21;3.90;;;1.07;;
17648;SDS011;8943;51.110;-4.158;2022-08-02T03:14:59;9.07;;;1.10;;
17648;SDS011;8943;51.110;-4.158;2022-08-02T03:17:38;7.63;;;1.47;;
17648;SDS011;8943;51.110;-4.158;2022-08-02T03:20:09;6.87;;;1.40;;
17648;SDS011;8943;51.110;-4.158;2022-08-02T03:22:39;5.90;;;1.10;;
17648;SDS011;8943;51.110;-4.158;2022-08-02T03:25:08;4.60;;;1.10;;
17648;SDS011;8943;51.110;-4.158;2022-08-02T03:27:38;2.90;;;1.17;;
17648;SDS011;8943;51.110;-4.158;2022-08-02T03:30:07;4.03;;;1.10;;
17648;SDS011;8943;51.110;-4.158;2022-08-02T03:32:39;4.17;;;0.80;;
17648;SDS011;8943;51.110;-4.158;2022-08-02T03:35:10;3.73;;;0.90;;
17648;SDS011;8943;51.110;-4.158;2022-08-02T03:37:48;4.53;;;1.13;;
17648;SDS011;8943;51.110;-4.158;2022-08-02T03:40:19;6.80;;;1.20;;
17648;SDS011;8943;51.110;-4.158;2022-08-02T03:42:48;5.53;;;1.10;;
17648;SDS011;8943;51.110;-4.158;2022-08-02T03:45:18;4.33;;;1.30;;
17648;SDS011;8943;51.110;-4.158;2022-08-02T03:47:50;2.73;;;0.90;;
17648;SDS011;8943;51.110;-4.158;2022-08-02T03:50:24;4.13;;;1.03;;
17648;SDS011;8943;51.110;-4.158;2022-08-02T03:52:54;5.60;;;1.00;;
17648;SDS011;8943;51.110;-4.158;2022-08-02T03:55:23;3.37;;;1.00;;
17648;SDS011;8943;51.110;-4.158;2022-08-02T03:57:51;5.17;;;1.37;;
17648;SDS011;8943;51.110;-4.158;2022-08-02T04:00:21;5.83;;;1.10;;
17648;SDS011;8943;51.110;-4.158;2022-08-02T04:02:52;3.37;;;0.97;;
17648;SDS011;8943;51.110;-4.158;2022-08-02T04:05:31;3.57;;;1.20;;
17648;SDS011;8943;51.110;-4.158;2022-08-02T04:07:59;4.07;;;0.97;;
17648;SDS011;8943;51.110;-4.158;2022-08-02T04:10:48;9.27;;;0.90;;
17648;SDS011;8943;51.110;-4.158;2022-08-02T04:13:34;6.17;;;1.77;;
17648;SDS011;8943;51.110;-4.158;2022-08-02T04:16:05;2.97;;;1.03;;
17648;SDS011;8943;51.110;-4.158;2022-08-02T04:18:42;1.60;;;0.77;;
17648;SDS011;8943;51.110;-4.158;2022-08-02T04:21:14;0.77;;;0.53;;
17648;SDS011;8943;51.110;-4.158;2022-08-02T04:23:46;2.17;;;0.70;;
17648;SDS011;8943;51.110;-4.158;2022-08-02T04:26:18;6.77;;;1.30;;
17648;SDS011;8943;51.110;-4.158;2022-08-02T04:28:53;1.90;;;0.97;;
17648;SDS011;8943;51.110;-4.158;2022-08-02T04:31:27;5.80;;;0.70;;
17648;SDS011;8943;51.110;-4.158;2022-08-02T04:33:59;3.83;;;0.73;;
17648;SDS011;8943;51.110;-4.158;2022-08-02T04:36:37;3.73;;;1.27;;
17648;SDS011;8943;51.110;-4.158;2022-08-02T04:39:07;3.63;;;1.27;;
17648;SDS011;8943;51.110;-4.158;2022-08-02T04:41:49;3.10;;;0.50;;
17648;SDS011;8943;51.110;-4.158;2022-08-02T04:44:33;5.83;;;1.00;;
17648;SDS011;8943;51.110;-4.158;2022-08-02T04:47:16;6.67;;;1.10;;
17648;SDS011;8943;51.110;-4.158;2022-08-02T04:50:28;3.90;;;0.80;;
17648;SDS011;8943;51.110;-4.158;2022-08-02T04:52:57;4.03;;;0.90;;
17648;SDS011;8943;51.110;-4.158;2022-08-02T04:55:31;2.27;;;0.90;;
17648;SDS011;8943;51.110;-4.158;2022-08-02T04:58:30;3.30;;;0.90;;
17648;SDS011;8943;51.110;-4.158;2022-08-02T05:01:30;4.83;;;0.83;;
17648;SDS011;8943;51.110;-4.158;2022-08-02T05:04:00;4.00;;;1.00;;
17648;SDS011;8943;51.110;-4.158;2022-08-02T05:06:30;4.77;;;1.27;;
17648;SDS011;8943;51.110;-4.158;2022-08-02T05:09:07;5.17;;;1.00;;
17648;SDS011;8943;51.110;-4.158;2022-08-02T05:11:53;6.90;;;1.53;;
17648;SDS011;8943;51.110;-4.158;2022-08-02T05:17:51;7.17;;;1.40;;
17648;SDS011;8943;51.110;-4.158;2022-08-02T05:20:53;10.77;;;1.83;;
17648;SDS011;8943;51.110;-4.158;2022-08-02T05:23:33;6.23;;;1.40;;
17648;SDS011;8943;51.110;-4.158;2022-08-02T05:26:08;5.13;;;1.40;;
17648;SDS011;8943;51.110;-4.158;2022-08-02T05:31:49;8.70;;;1.93;;
17648;SDS011;8943;51.110;-4.158;2022-08-02T05:34:18;7.63;;;1.90;;
17648;SDS011;8943;51.110;-4.158;2022-08-02T05:37:03;8.37;;;1.77;;
17648;SDS011;8943;51.110;-4.158;2022-08-02T05:39:39;4.83;;;1.63;;
17648;SDS011;8943;51.110;-4.158;2022-08-02T05:42:21;7.77;;;1.57;;
17648;SDS011;8943;51.110;-4.158;2022-08-02T05:48:25;10.47;;;2.07;;
17648;SDS011;8943;51.110;-4.158;2022-08-02T05:51:42;10.40;;;2.10;;
17648;SDS011;8943;51.110;-4.158;2022-08-02T05:54:28;5.37;;;1.40;;
17648;SDS011;8943;51.110;-4.158;2022-08-02T06:00:30;6.33;;;1.70;;
17648;SDS011;8943;51.110;-4.158;2022-08-02T06:03:21;10.33;;;2.17;;
17648;SDS011;8943;51.110;-4.158;2022-08-02T06:05:56;8.17;;;1.93;;
17648;SDS011;8943;51.110;-4.158;2022-08-02T06:08:45;6.53;;;2.00;;
17648;SDS011;8943;51.110;-4.158;2022-08-02T06:11:52;11.23;;;2.23;;
17648;SDS011;8943;51.110;-4.158;2022-08-02T06:15:08;8.80;;;2.20;;
17648;SDS011;8943;51.110;-4.158;2022-08-02T06:21:01;10.17;;;2.87;;
17648;SDS011;8943;51.110;-4.158;2022-08-02T06:24:05;6.03;;;2.60;;
17648;SDS011;8943;51.110;-4.158;2022-08-02T06:26:44;11.00;;;2.90;;
17648;SDS011;8943;51.110;-4.158;2022-08-02T06:29:19;10.90;;;3.00;;
17648;SDS011;8943;51.110;-4.158;2022-08-02T06:31:50;10.53;;;3.23;;
17648;SDS011;8943;51.110;-4.158;2022-08-02T06:34:20;9.10;;;2.90;;
17648;SDS011;8943;51.110;-4.158;2022-08-02T06:36:51;10.47;;;2.87;;
17648;SDS011;8943;51.110;-4.158;2022-08-02T06:39:38;12.17;;;3.20;;
17648;SDS011;8943;51.110;-4.158;2022-08-02T06:43:05;10.80;;;2.80;;
17648;SDS011;8943;51.110;-4.158;2022-08-02T06:46:00;7.10;;;2.63;;
17648;SDS011;8943;51.110;-4.158;2022-08-02T06:48:47;9.40;;;3.03;;
17648;SDS011;8943;51.110;-4.158;2022-08-02T06:51:20;11.43;;;2.53;;
17648;SDS011;8943;51.110;-4.158;2022-08-02T06:53:48;8.70;;;2.60;;
17648;SDS011;8943;51.110;-4.158;2022-08-02T06:56:17;7.60;;;2.87;;
17648;SDS011;8943;51.110;-4.158;2022-08-02T06:58:48;9.73;;;2.33;;
17648;SDS011;8943;51.110;-4.158;2022-08-02T07:01:31;6.93;;;1.90;;
17648;SDS011;8943;51.110;-4.158;2022-08-02T07:04:07;6.60;;;1.77;;
17648;SDS011;8943;51.110;-4.158;2022-08-02T07:06:36;8.60;;;2.00;;
17648;SDS011;8943;51.110;-4.158;2022-08-02T07:09:04;8.73;;;2.50;;
17648;SDS011;8943;51.110;-4.158;2022-08-02T07:11:46;6.57;;;1.63;;
17648;SDS011;8943;51.110;-4.158;2022-08-02T07:14:15;5.77;;;1.70;;
17648;SDS011;8943;51.110;-4.158;2022-08-02T07:16:48;8.97;;;1.90;;
17648;SDS011;8943;51.110;-4.158;2022-08-02T07:19:18;9.53;;;2.13;;
17648;SDS011;8943;51.110;-4.158;2022-08-02T07:22:02;6.13;;;2.50;;
17648;SDS011;8943;51.110;-4.158;2022-08-02T07:24:50;13.83;;;3.07;;
17648;SDS011;8943;51.110;-4.158;2022-08-02T07:27:48;6.67;;;2.23;;
17648;SDS011;8943;51.110;-4.158;2022-08-02T07:30:16;10.50;;;2.90;;
17648;SDS011;8943;51.110;-4.158;2022-08-02T07:32:52;8.23;;;2.57;;
17648;SDS011;8943;51.110;-4.158;2022-08-02T07:35:22;8.70;;;2.27;;
17648;SDS011;8943;51.110;-4.158;2022-08-02T07:37:56;7.30;;;2.53;;
17648;SDS011;8943;51.110;-4.158;2022-08-02T07:40:39;8.27;;;3.13;;
17648;SDS011;8943;51.110;-4.158;2022-08-02T07:43:08;6.47;;;1.87;;
17648;SDS011;8943;51.110;-4.158;2022-08-02T07:46:02;9.87;;;2.30;;
17648;SDS011;8943;51.110;-4.158;2022-08-02T07:48:46;11.83;;;2.63;;
17648;SDS011;8943;51.110;-4.158;2022-08-02T07:51:40;7.57;;;2.40;;
17648;SDS011;8943;51.110;-4.158;2022-08-02T07:54:11;13.10;;;2.70;;
17648;SDS011;8943;51.110;-4.158;2022-08-02T07:56:54;10.30;;;2.53;;
17648;SDS011;8943;51.110;-4.158;2022-08-02T07:59:26;11.80;;;2.57;;
17648;SDS011;8943;51.110;-4.158;2022-08-02T08:01:58;12.23;;;2.47;;
17648;SDS011;8943;51.110;-4.158;2022-08-02T08:04:27;10.73;;;2.70;;
17648;SDS011;8943;51.110;-4.158;2022-08-02T08:06:59;15.33;;;3.00;;
17648;SDS011;8943;51.110;-4.158;2022-08-02T08:18:42;15.13;;;3.13;;
17648;SDS011;8943;51.110;-4.158;2022-08-02T08:21:12;7.10;;;2.13;;
17648;SDS011;8943;51.110;-4.158;2022-08-02T08:23:59;11.93;;;3.40;;
17648;SDS011;8943;51.110;-4.158;2022-08-02T08:26:31;12.40;;;3.40;;
17648;SDS011;8943;51.110;-4.158;2022-08-02T08:29:00;11.77;;;3.33;;
17648;SDS011;8943;51.110;-4.158;2022-08-02T08:31:31;16.60;;;3.20;;
17648;SDS011;8943;51.110;-4.158;2022-08-02T08:34:03;11.60;;;3.00;;
17648;SDS011;8943;51.110;-4.158;2022-08-02T08:36:32;14.40;;;3.00;;
17648;SDS011;8943;51.110;-4.158;2022-08-02T08:39:04;18.83;;;3.43;;
17648;SDS011;8943;51.110;-4.158;2022-08-02T08:41:33;16.00;;;3.33;;
17648;SDS011;8943;51.110;-4.158;2022-08-02T08:44:03;16.03;;;3.40;;
17648;SDS011;8943;51.110;-4.158;2022-08-02T08:46:32;13.83;;;3.27;;
17648;SDS011;8943;51.110;-4.158;2022-08-02T08:49:06;16.43;;;3.80;;
17648;SDS011;8943;51.110;-4.158;2022-08-02T08:55:24;16.80;;;4.20;;
17648;SDS011;8943;51.110;-4.158;2022-08-02T08:58:01;13.33;;;3.13;;
17648;SDS011;8943;51.110;-4.158;2022-08-02T09:00:51;15.23;;;3.60;;
17648;SDS011;8943;51.110;-4.158;2022-08-02T09:03:44;15.80;;;3.17;;
17648;SDS011;8943;51.110;-4.158;2022-08-02T09:06:33;10.70;;;2.90;;
17648;SDS011;8943;51.110;-4.158;2022-08-02T09:09:40;10.87;;;3.03;;
17648;SDS011;8943;51.110;-4.158;2022-08-02T09:15:12;13.20;;;2.83;;
17648;SDS011;8943;51.110;-4.158;2022-08-02T09:18:17;12.60;;;2.83;;
17648;SDS011;8943;51.110;-4.158;2022-08-02T09:20:50;12.77;;;3.70;;
17648;SDS011;8943;51.110;-4.158;2022-08-02T09:24:00;11.67;;;2.97;;
17648;SDS011;8943;51.110;-4.158;2022-08-02T09:27:19;15.60;;;3.30;;
17648;SDS011;8943;51.110;-4.158;2022-08-02T09:36:08;11.77;;;2.70;;
17648;SDS011;8943;51.110;-4.158;2022-08-02T09:39:13;12.53;;;3.37;;
17648;SDS011;8943;51.110;-4.158;2022-08-02T09:42:22;15.10;;;3.47;;
17648;SDS011;8943;51.110;-4.158;2022-08-02T09:45:05;12.60;;;2.80;;
17648;SDS011;8943;51.110;-4.158;2022-08-02T09:47:42;17.13;;;3.67;;
17648;SDS011;8943;51.110;-4.158;2022-08-02T09:50:20;14.40;;;3.37;;
17648;SDS011;8943;51.110;-4.158;2022-08-02T09:53:10;17.47;;;3.77;;
17648;SDS011;8943;51.110;-4.158;2022-08-02T09:56:06;10.27;;;2.70;;
17648;SDS011;8943;51.110;-4.158;2022-08-02T09:59:15;21.10;;;4.57;;
17648;SDS011;8943;51.110;-4.158;2022-08-02T10:02:26;9.57;;;3.23;;
17648;SDS011;8943;51.110;-4.158;2022-08-02T10:05:09;17.07;;;3.07;;
17648;SDS011;8943;51.110;-4.158;2022-08-02T10:07:53;18.87;;;3.03;;
17648;SDS011;8943;51.110;-4.158;2022-08-02T10:10:30;17.57;;;3.67;;
17648;SDS011;8943;51.110;-4.158;2022-08-02T10:13:12;14.47;;;3.33;;
17648;SDS011;8943;51.110;-4.158;2022-08-02T10:19:24;18.57;;;3.30;;
17648;SDS011;8943;51.110;-4.158;2022-08-02T10:22:30;13.00;;;2.87;;
17648;SDS011;8943;51.110;-4.158;2022-08-02T10:25:47;10.30;;;2.37;;
17648;SDS011;8943;51.110;-4.158;2022-08-02T10:28:36;10.13;;;2.97;;
17648;SDS011;8943;51.110;-4.158;2022-08-02T10:31:46;13.30;;;2.80;;
17648;SDS011;8943;51.110;-4.158;2022-08-02T10:34:40;21.47;;;3.13;;
17648;SDS011;8943;51.110;-4.158;2022-08-02T10:37:51;18.57;;;4.20;;
17648;SDS011;8943;51.110;-4.158;2022-08-02T10:40:46;9.27;;;2.67;;
17648;SDS011;8943;51.110;-4.158;2022-08-02T10:43:43;9.30;;;2.33;;
17648;SDS011;8943;51.110;-4.158;2022-08-02T10:46:32;14.40;;;4.30;;
17648;SDS011;8943;51.110;-4.158;2022-08-02T10:49:37;14.70;;;3.40;;
17648;SDS011;8943;51.110;-4.158;2022-08-02T10:55:51;9.57;;;2.53;;
17648;SDS011;8943;51.110;-4.158;2022-08-02T10:58:43;11.43;;;2.70;;
17648;SDS011;8943;51.110;-4.158;2022-08-02T11:01:27;10.10;;;2.60;;
17648;SDS011;8943;51.110;-4.158;2022-08-02T11:04:05;12.30;;;2.87;;
17648;SDS011;8943;51.110;-4.158;2022-08-02T11:07:11;9.67;;;2.90;;
17648;SDS011;8943;51.110;-4.158;2022-08-02T11:13:18;12.80;;;2.80;;
17648;SDS011;8943;51.110;-4.158;2022-08-02T11:16:10;7.80;;;2.47;;
17648;SDS011;8943;51.110;-4.158;2022-08-02T11:19:20;11.80;;;1.83;;
17648;SDS011;8943;51.110;-4.158;2022-08-02T11:22:20;10.17;;;2.90;;
17648;SDS011;8943;51.110;-4.158;2022-08-02T11:24:51;17.23;;;2.73;;
17648;SDS011;8943;51.110;-4.158;2022-08-02T11:27:28;15.37;;;3.07;;
17648;SDS011;8943;51.110;-4.158;2022-08-02T11:30:10;11.83;;;2.57;;
17648;SDS011;8943;51.110;-4.158;2022-08-02T11:32:55;12.87;;;3.57;;
17648;SDS011;8943;51.110;-4.158;2022-08-02T11:41:18;16.87;;;3.50;;
17648;SDS011;8943;51.110;-4.158;2022-08-02T11:44:09;14.37;;;2.77;;
17648;SDS011;8943;51.110;-4.158;2022-08-02T11:46:37;20.47;;;3.97;;
17648;SDS011;8943;51.110;-4.158;2022-08-02T11:49:12;15.80;;;2.70;;
17648;SDS011;8943;51.110;-4.158;2022-08-02T11:52:06;15.43;;;3.03;;
17648;SDS011;8943;51.110;-4.158;2022-08-02T11:54:40;13.07;;;2.77;;
17648;SDS011;8943;51.110;-4.158;2022-08-02T11:57:24;16.03;;;2.77;;
17648;SDS011;8943;51.110;-4.158;2022-08-02T12:00:13;15.40;;;3.57;;
17648;SDS011;8943;51.110;-4.158;2022-08-02T12:02:46;9.53;;;2.47;;
17648;SDS011;8943;51.110;-4.158;2022-08-02T12:07:49;11.90;;;3.03;;
17648;SDS011;8943;51.110;-4.158;2022-08-02T12:10:33;9.50;;;2.30;;
17648;SDS011;8943;51.110;-4.158;2022-08-02T12:13:03;13.13;;;2.30;;
17648;SDS011;8943;51.110;-4.158;2022-08-02T12:16:08;9.67;;;2.50;;
17648;SDS011;8943;51.110;-4.158;2022-08-02T12:19:13;11.43;;;2.77;;
17648;SDS011;8943;51.110;-4.158;2022-08-02T12:22:39;12.93;;;2.70;;
17648;SDS011;8943;51.110;-4.158;2022-08-02T12:28:18;15.10;;;2.90;;
17648;SDS011;8943;51.110;-4.158;2022-08-02T12:31:09;16.47;;;3.23;;
17648;SDS011;8943;51.110;-4.158;2022-08-02T12:33:47;8.90;;;2.60;;
17648;SDS011;8943;51.110;-4.158;2022-08-02T12:37:03;11.43;;;2.67;;
17648;SDS011;8943;51.110;-4.158;2022-08-02T12:39:39;11.30;;;2.20;;
17648;SDS011;8943;51.110;-4.158;2022-08-02T12:42:44;8.47;;;1.97;;
17648;SDS011;8943;51.110;-4.158;2022-08-02T12:45:28;8.70;;;2.47;;
17648;SDS011;8943;51.110;-4.158;2022-08-02T12:52:18;9.63;;;2.60;;
17648;SDS011;8943;51.110;-4.158;2022-08-02T12:55:14;17.07;;;3.63;;
17648;SDS011;8943;51.110;-4.158;2022-08-02T12:58:28;14.30;;;2.30;;
17648;SDS011;8943;51.110;-4.158;2022-08-02T13:01:33;11.73;;;2.90;;
17648;SDS011;8943;51.110;-4.158;2022-08-02T13:04:14;18.60;;;2.80;;
17648;SDS011;8943;51.110;-4.158;2022-08-02T13:06:45;12.97;;;3.40;;
17648;SDS011;8943;51.110;-4.158;2022-08-02T13:09:36;10.60;;;3.07;;
17648;SDS011;8943;51.110;-4.158;2022-08-02T13:12:14;14.40;;;2.73;;
17648;SDS011;8943;51.110;-4.158;2022-08-02T13:17:56;11.47;;;2.40;;
17648;SDS011;8943;51.110;-4.158;2022-08-02T13:20:36;14.10;;;2.90;;
17648;SDS011;8943;51.110;-4.158;2022-08-02T13:23:27;12.87;;;2.70;;
17648;SDS011;8943;51.110;-4.158;2022-08-02T13:26:18;10.80;;;3.10;;
17648;SDS011;8943;51.110;-4.158;2022-08-02T13:29:08;13.30;;;3.37;;
17648;SDS011;8943;51.110;-4.158;2022-08-02T13:32:02;10.93;;;2.23;;
17648;SDS011;8943;51.110;-4.158;2022-08-02T13:35:05;11.43;;;2.93;;
17648;SDS011;8943;51.110;-4.158;2022-08-02T13:37:51;9.87;;;2.93;;
17648;SDS011;8943;51.110;-4.158;2022-08-02T13:55:12;17.70;;;3.27;;
17648;SDS011;8943;51.110;-4.158;2022-08-02T13:57:40;14.30;;;2.80;;
17648;SDS011;8943;51.110;-4.158;2022-08-02T14:00:27;14.60;;;2.67;;
17648;SDS011;8943;51.110;-4.158;2022-08-02T14:03:03;20.23;;;3.87;;
17648;SDS011;8943;51.110;-4.158;2022-08-02T14:06:13;13.10;;;2.77;;
17648;SDS011;8943;51.110;-4.158;2022-08-02T14:18:42;13.00;;;3.17;;
17648;SDS011;8943;51.110;-4.158;2022-08-02T14:21:56;9.57;;;2.97;;
17648;SDS011;8943;51.110;-4.158;2022-08-02T14:24:42;11.57;;;2.77;;
17648;SDS011;8943;51.110;-4.158;2022-08-02T14:27:36;15.43;;;2.83;;
17648;SDS011;8943;51.110;-4.158;2022-08-02T14:30:53;10.33;;;2.97;;
17648;SDS011;8943;51.110;-4.158;2022-08-02T14:34:03;8.00;;;2.47;;
17648;SDS011;8943;51.110;-4.158;2022-08-02T14:37:16;13.37;;;2.57;;
17648;SDS011;8943;51.110;-4.158;2022-08-02T14:40:05;9.53;;;2.47;;
17648;SDS011;8943;51.110;-4.158;2022-08-02T14:43:09;10.33;;;2.97;;
17648;SDS011;8943;51.110;-4.158;2022-08-02T14:46:01;8.03;;;2.80;;
17648;SDS011;8943;51.110;-4.158;2022-08-02T14:48:34;12.03;;;2.90;;
17648;SDS011;8943;51.110;-4.158;2022-08-02T14:51:08;11.83;;;2.70;;
17648;SDS011;8943;51.110;-4.158;2022-08-02T14:53:57;13.43;;;3.00;;
17648;SDS011;8943;51.110;-4.158;2022-08-02T14:56:33;9.57;;;2.80;;
17648;SDS011;8943;51.110;-4.158;2022-08-02T14:59:16;9.87;;;2.73;;
17648;SDS011;8943;51.110;-4.158;2022-08-02T15:02:06;12.37;;;3.07;;
17648;SDS011;8943;51.110;-4.158;2022-08-02T15:04:48;10.80;;;3.20;;
17648;SDS011;8943;51.110;-4.158;2022-08-02T15:07:26;14.97;;;3.30;;
17648;SDS011;8943;51.110;-4.158;2022-08-02T15:09:54;13.37;;;3.43;;
17648;SDS011;8943;51.110;-4.158;2022-08-02T15:12:37;12.43;;;2.80;;
17648;SDS011;8943;51.110;-4.158;2022-08-02T15:15:13;10.83;;;2.90;;
17648;SDS011;8943;51.110;-4.158;2022-08-02T15:17:44;8.50;;;2.67;;
17648;SDS011;8943;51.110;-4.158;2022-08-02T15:20:13;14.40;;;3.03;;
17648;SDS011;8943;51.110;-4.158;2022-08-02T15:22:54;14.67;;;2.90;;
17648;SDS011;8943;51.110;-4.158;2022-08-02T15:25:27;9.97;;;2.93;;
17648;SDS011;8943;51.110;-4.158;2022-08-02T15:27:57;17.30;;;3.30;;
17648;SDS011;8943;51.110;-4.158;2022-08-02T15:30:26;13.13;;;3.63;;
17648;SDS011;8943;51.110;-4.158;2022-08-02T15:33:29;12.63;;;3.53;;
17648;SDS011;8943;51.110;-4.158;2022-08-02T15:36:00;10.93;;;2.77;;
17648;SDS011;8943;51.110;-4.158;2022-08-02T15:38:36;13.03;;;3.33;;
17648;SDS011;8943;51.110;-4.158;2022-08-02T15:41:25;14.50;;;3.30;;
17648;SDS011;8943;51.110;-4.158;2022-08-02T15:44:17;13.00;;;3.40;;
17648;SDS011;8943;51.110;-4.158;2022-08-02T15:47:14;8.83;;;3.07;;
17648;SDS011;8943;51.110;-4.158;2022-08-02T15:49:57;8.50;;;2.87;;
17648;SDS011;8943;51.110;-4.158;2022-08-02T15:52:28;14.30;;;2.77;;
17648;SDS011;8943;51.110;-4.158;2022-08-02T16:01:43;18.40;;;4.23;;
17648;SDS011;8943;51.110;-4.158;2022-08-02T16:04:16;18.53;;;4.50;;
17648;SDS011;8943;51.110;-4.158;2022-08-02T16:06:45;14.10;;;3.20;;
17648;SDS011;8943;51.110;-4.158;2022-08-02T16:09:28;12.87;;;4.10;;
17648;SDS011;8943;51.110;-4.158;2022-08-02T16:33:50;11.33;;;3.13;;
17648;SDS011;8943;51.110;-4.158;2022-08-02T16:39:09;12.97;;;3.33;;
17648;SDS011;8943;51.110;-4.158;2022-08-02T16:45:47;11.63;;;3.70;;
17648;SDS011;8943;51.110;-4.158;2022-08-02T16:49:20;9.77;;;2.27;;
17648;SDS011;8943;51.110;-4.158;2022-08-02T16:52:06;12.60;;;3.30;;
17648;SDS011;8943;51.110;-4.158;2022-08-02T16:54:46;9.90;;;2.93;;
17648;SDS011;8943;51.110;-4.158;2022-08-02T16:57:15;12.63;;;2.90;;
17648;SDS011;8943;51.110;-4.158;2022-08-02T17:00:09;9.63;;;2.27;;
17648;SDS011;8943;51.110;-4.158;2022-08-02T17:09:17;14.47;;;3.90;;
17648;SDS011;8943;51.110;-4.158;2022-08-02T17:12:14;12.00;;;2.87;;
17648;SDS011;8943;51.110;-4.158;2022-08-02T17:14:51;16.90;;;2.87;;
17648;SDS011;8943;51.110;-4.158;2022-08-02T17:17:24;14.93;;;2.90;;
17648;SDS011;8943;51.110;-4.158;2022-08-02T17:20:14;15.27;;;3.27;;
17648;SDS011;8943;51.110;-4.158;2022-08-02T17:22:45;8.87;;;2.77;;
17648;SDS011;8943;51.110;-4.158;2022-08-02T17:25:16;10.30;;;2.37;;
17648;SDS011;8943;51.110;-4.158;2022-08-02T17:28:00;8.10;;;2.40;;
17648;SDS011;8943;51.110;-4.158;2022-08-02T17:31:24;9.07;;;2.60;;
17648;SDS011;8943;51.110;-4.158;2022-08-02T17:34:10;7.73;;;2.07;;
17648;SDS011;8943;51.110;-4.158;2022-08-02T17:36:53;13.03;;;3.20;;
17648;SDS011;8943;51.110;-4.158;2022-08-02T17:43:18;13.07;;;2.40;;
17648;SDS011;8943;51.110;-4.158;2022-08-02T17:45:57;12.23;;;3.80;;
17648;SDS011;8943;51.110;-4.158;2022-08-02T17:48:34;13.53;;;2.83;;
17648;SDS011;8943;51.110;-4.158;2022-08-02T17:51:42;15.87;;;3.17;;
17648;SDS011;8943;51.110;-4.158;2022-08-02T17:54:39;15.07;;;3.00;;
17648;SDS011;8943;51.110;-4.158;2022-08-02T17:57:10;14.37;;;2.87;;
17648;SDS011;8943;51.110;-4.158;2022-08-02T17:59:56;9.77;;;2.57;;
17648;SDS011;8943;51.110;-4.158;2022-08-02T18:02:49;13.00;;;2.60;;
17648;SDS011;8943;51.110;-4.158;2022-08-02T18:05:26;12.13;;;3.57;;
17648;SDS011;8943;51.110;-4.158;2022-08-02T18:08:06;10.77;;;2.80;;
17648;SDS011;8943;51.110;-4.158;2022-08-02T18:10:51;10.87;;;2.90;;
17648;SDS011;8943;51.110;-4.158;2022-08-02T18:13:36;12.00;;;3.07;;
17648;SDS011;8943;51.110;-4.158;2022-08-02T18:16:20;9.00;;;3.47;;
17648;SDS011;8943;51.110;-4.158;2022-08-02T18:18:59;15.37;;;3.80;;
17648;SDS011;8943;51.110;-4.158;2022-08-02T18:21:50;23.37;;;3.77;;
17648;SDS011;8943;51.110;-4.158;2022-08-02T18:24:20;12.03;;;2.63;;